Latest Coastal Weather Observations for Centre Island

IDD60701

Issued at 6:52 pm CST Wednesday 1 April 2015 (issued every 10 minutes, with the page automatically refreshed every 10 minutes)

About coastal observations | Map of coastal stations | Coastal observations for NT | Marine services | Other Formats
Station Details ID: 014703 Name: CENTRE ISLAND Lat: -15.74 Lon: 136.82 Height: 12.2 m
Data from the previous 72 hours. | See also: Recent months at Centre Island
Date/Time
CST
Temp

°C
Wind Pressure Rain
since 9am
mm
Weather Cloud Vis
km
Sea
Height
m
Swell
Dir
 
Speed
knots
Gust
knots
hPa Trend Height
m
Period
s
Dir
01/06:30pm 30.3 NNE 10 13 1008.8 - 0.0 - - - - - - -
01/06:00pm 30.7 NNE 9 13 1008.6 - 0.0 - - - - - - -
01/05:30pm 31.0 NNE 12 16 1008.4 - 0.0 - - - - - - -
01/05:00pm 31.3 NNE 13 16 1008.3 - 0.0 - - - - - - -
01/04:30pm 31.9 NE 12 16 1008.4 - 0.0 - - - - - - -
01/04:00pm 32.3 NE 12 15 1008.6 - 0.0 - - - - - - -
01/03:30pm 32.8 NE 12 15 1008.6 - 0.0 - - - - - - -
01/03:00pm 33.4 NNE 10 14 1008.8 - 0.0 - - - - - - -
01/02:30pm 33.7 NNE 12 16 1009.0 - 0.0 - - - - - - -
01/02:00pm 34.3 NNE 12 16 1009.5 - 0.0 - - - - - - -
01/01:30pm 35.2 NNE 11 16 1009.8 - 0.0 - - - - - - -
01/01:00pm 34.2 NE 10 13 1010.4 - 0.0 - - - - - - -
01/12:30pm 34.1 ENE 7 10 1010.7 - 0.0 - - - - - - -
01/12:00pm 33.1 SE 5 6 1011.2 - 0.0 - - - - - - -
01/11:30am 32.0 SE 5 7 1011.5 - 0.0 - - - - - - -
01/11:00am 32.1 SE 5 6 1012.0 - 0.0 - - - - - - -
01/10:30am 31.6 SSE 5 6 1012.2 - 0.0 - - - - - - -
01/10:00am 30.8 S 5 6 1012.4 - 0.0 - - - - - - -
01/09:30am 30.8 SSW 5 6 1012.3 - 0.0 - - - - - - -
01/09:00am 30.9 SW 5 7 1012.3 - 0.0 - - - - - - -
01/08:30am 30.1 SSW 6 8 1012.3 - 0.0 - - - - - - -
01/08:00am 29.7 SW 5 7 1011.9 - 0.0 - - - - - - -
01/07:30am 29.0 SW 6 8 1011.6 - 0.0 - - - - - - -
01/07:00am 28.3 SW 7 9 1011.4 - 0.0 - - - - - - -
01/06:30am 28.0 SW 8 10 1011.0 - 0.0 - - - - - - -
01/06:00am 28.0 SW 9 11 1010.9 - 0.0 - - - - - - -
01/05:30am 28.1 SW 7 10 1010.6 - 0.0 - - - - - - -
01/05:00am 28.1 SW 7 10 1010.4 - 0.0 - - - - - - -
01/04:30am 27.5 W 4 5 1010.1 - 0.0 - - - - - - -
01/04:00am 27.2 CALM 0 0 1009.8 - 0.0 - - - - - - -
01/03:30am 27.2 CALM 0 0 1009.8 - 0.0 - - - - - - -
01/03:00am 27.2 NW 4 5 1009.7 - 0.0 - - - - - - -
01/02:30am 27.7 WNW 4 4 1009.9 - 0.0 - - - - - - -
01/02:00am 27.8 NW 4 5 1010.2 - 0.0 - - - - - - -
01/01:30am 28.1 NNW 4 5 1010.6 - 0.0 - - - - - - -
01/01:00am 28.7 N 5 8 1010.9 - 0.0 - - - - - - -
01/12:30am 28.6 N 5 6 1011.3 - 0.0 - - - - - - -
01/12:00am 29.1 NNE 5 6 1011.7 - 0.0 - - - - - - -
 
Date/Time
CST
Temp

°C
Wind Pressure Rain
since 9am
mm
Weather Cloud Vis
km
Sea
Height
m
Swell
Dir
 
Speed
knots
Gust
knots
hPa Trend Height
m
Period
s
Dir
31/11:30pm 29.3 NNE 6 8 1011.9 - 0.0 - - - - - - -
31/11:00pm 29.4 NE 8 9 1012.1 - 0.0 - - - - - - -
31/10:30pm 29.6 NE 8 11 1012.2 - 0.0 - - - - - - -
31/10:00pm 29.6 NNE 8 11 1012.1 - 0.0 - - - - - - -
31/09:30pm 29.8 NNE 9 11 1012.2 - 0.0 - - - - - - -
31/09:00pm 29.8 NNE 10 13 1011.9 - 0.0 - - - - - - -
31/08:30pm 29.9 NNE 10 13 1011.6 - 0.0 - - - - - - -
31/08:00pm 29.8 NNE 9 12 1011.5 - 0.0 - - - - - - -
31/07:30pm 29.9 NNE 9 12 1011.4 - 0.0 - - - - - - -
31/07:00pm 30.0 NNE 9 13 1011.1 - 0.0 - - - - - - -
31/06:30pm 30.2 NNE 10 13 1010.9 - 0.0 - - - - - - -
31/06:00pm 30.8 NNE 10 12 1010.6 - 0.0 - - - - - - -
31/05:30pm 31.3 NNE 12 15 1010.5 - 0.0 - - - - - - -
31/05:00pm 31.8 NNE 12 16 1010.2 - 0.0 - - - - - - -
31/04:30pm 32.5 NNE 11 15 1010.2 - 0.0 - - - - - - -
31/04:00pm 33.0 NNE 9 13 1010.3 - 0.0 - - - - - - -
31/03:30pm 33.0 NNE 9 11 1010.2 - 0.0 - - - - - - -
31/03:00pm 33.7 NE 8 11 1010.3 - 0.0 - - - - - - -
31/02:30pm 33.0 NE 7 9 1010.7 - 0.0 - - - - - - -
31/02:00pm 33.2 NE 6 9 1011.1 - 0.0 - - - - - - -
31/01:30pm 34.0 NE 6 7 1011.6 - 0.0 - - - - - - -
31/01:00pm 33.3 NNE 5 7 1012.1 - 0.0 - - - - - - -
31/12:30pm 33.7 ESE 5 6 1012.5 - 0.0 - - - - - - -
31/12:00pm 32.2 SE 5 7 1013.0 - 0.0 - - - - - - -
31/11:30am 32.1 SSE 5 7 1013.4 - 0.0 - - - - - - -
31/11:00am 32.0 SE 5 7 1013.9 - 0.0 - - - - - - -
31/10:30am 31.1 SSE 6 7 1014.3 - 0.0 - - - - - - -
31/10:00am 31.0 S 6 7 1014.5 - 0.0 - - - - - - -
31/09:30am 30.4 S 7 9 1014.4 - 0.0 - - - - - - -
31/09:00am 29.9 SSE 7 9 1014.2 - 0.0 - - - - - - -
31/08:30am 29.7 S 7 9 1014.0 - 0.0 - - - - - - -
31/08:00am 29.2 S 5 7 1013.6 - 0.0 - - - - - - -
31/07:30am 28.5 NW 1 3 1013.3 - 0.0 - - - - - - -
31/07:00am 27.1 NW 3 4 1012.9 - 0.0 - - - - - - -
31/06:30am 26.7 NW 3 4 1012.5 - 0.0 - - - - - - -
31/06:00am 26.6 NW 3 3 1012.0 - 0.0 - - - - - - -
31/05:30am 26.8 NW 3 4 1011.9 - 0.0 - - - - - - -
31/05:00am 27.0 NW 4 4 1011.6 - 0.0 - - - - - - -
31/04:30am 27.4 NNW 4 5 1011.6 - 0.0 - - - - - - -
31/04:00am 28.5 NNE 6 7 1011.5 - 0.0 - - - - - - -
31/03:30am 28.6 NNE 7 9 1011.3 - 0.0 - - - - - - -
31/03:00am 28.8 NE 7 9 1011.4 - 0.0 - - - - - - -
31/02:30am 28.9 ENE 8 10 1011.5 - 0.0 - - - - - - -
31/02:00am 28.9 NE 7 10 1011.8 - 0.0 - - - - - - -
31/01:30am 28.9 ENE 8 10 1011.9 - 0.0 - - - - - - -
31/01:00am 29.0 ENE 8 10 1012.3 - 0.0 - - - - - - -
31/12:30am 29.1 ENE 8 10 1012.7 - 0.0 - - - - - - -
31/12:00am 29.1 ENE 9 11 1012.9 - 0.0 - - - - - - -
 
Date/Time
CST
Temp

°C
Wind Pressure Rain
since 9am
mm
Weather Cloud Vis
km
Sea
Height
m
Swell
Dir
 
Speed
knots
Gust
knots
hPa Trend Height
m
Period
s
Dir
30/11:30pm 29.1 ENE 8 10 1013.2 - 0.0 - - - - - - -
30/11:00pm 29.2 ENE 9 11 1013.2 - 0.0 - - - - - - -
30/10:30pm 29.3 E 10 11 1013.5 - 0.0 - - - - - - -
30/10:00pm 29.4 E 10 12 1013.8 - 0.0 - - - - - - -
30/09:30pm 29.6 ESE 10 12 1013.9 - 0.0 - - - - - - -
30/09:00pm 29.5 ESE 9 12 1013.6 - 0.0 - - - - - - -
30/08:30pm 29.6 ESE 9 11 1013.6 - 0.0 - - - - - - -
30/08:00pm 29.6 E 9 10 1013.2 - 0.0 - - - - - - -
30/07:30pm 29.8 E 9 11 1013.2 - 0.0 - - - - - - -
30/07:00pm 30.0 E 9 11 1013.0 - 0.0 - - - - - - -
30/06:30pm 30.4 E 11 13 1012.6 - 0.0 - - - - - - -
30/06:00pm 31.2 E 11 14 1012.3 - 0.0 - - - - - - -
30/05:30pm 31.6 E 13 15 1012.0 - 0.0 - - - - - - -
30/05:00pm 32.9 E 11 14 1011.8 - 0.0 - - - - - - -
30/04:30pm 33.2 E 11 15 1011.7 - 0.0 - - - - - - -
30/04:00pm 33.0 NE 9 14 1011.9 - 0.0 - - - - - - -
30/03:30pm 33.2 NE 12 15 1011.8 - 0.0 - - - - - - -
30/03:00pm 33.5 NE 11 15 1012.0 - 0.0 - - - - - - -
30/02:30pm 34.0 NNE 11 14 1012.0 - 0.0 - - - - - - -
30/02:00pm 33.6 ENE 8 13 1012.3 - 0.0 - - - - - - -
30/01:30pm 31.7 SE 8 10 1012.5 - 0.0 - - - - - - -
30/01:00pm 33.6 ESE 9 11 1012.8 - 0.0 - - - - - - -
30/12:30pm 32.4 ESE 12 14 1013.5 - 0.0 - - - - - - -
30/12:00pm 32.5 SE 11 14 1013.8 - 0.0 - - - - - - -
30/11:30am 32.7 SE 8 9 1014.3 - 0.0 - - - - - - -
30/11:00am 32.3 SE 7 9 1014.5 - 0.0 - - - - - - -
30/10:30am 31.6 SSE 7 9 1014.8 - 0.0 - - - - - - -
30/10:00am 31.4 SSE 9 11 1015.0 - 0.0 - - - - - - -
30/09:30am 31.0 SE 9 11 1015.1 - 0.0 - - - - - - -
30/09:00am 30.4 SE 8 9 1015.1 - 0.0 - - - - - - -
30/08:30am 29.7 SSE 7 8 1014.7 - 0.0 - - - - - - -
30/08:00am 29.2 SSE 7 8 1014.1 - 0.0 - - - - - - -
30/07:30am 28.8 SSE 7 8 1013.7 - 0.0 - - - - - - -
30/07:00am 28.0 S 6 8 1013.1 - 0.0 - - - - - - -
30/06:30am 27.8 S 5 6 1012.8 - 0.0 - - - - - - -
30/06:00am 27.1 CALM 0 0 1012.5 - 0.0 - - - - - - -
30/05:30am 27.4 E 4 5 1012.3 - 0.0 - - - - - - -
30/05:00am 27.2 E 3 4 1012.0 - 0.0 - - - - - - -
30/04:30am 27.4 E 3 4 1011.7 - 0.0 - - - - - - -
30/04:00am 27.6 ESE 3 3 1011.6 - 0.0 - - - - - - -
30/03:30am 27.7 E 3 4 1011.6 - 0.0 - - - - - - -
30/03:00am 27.8 E 3 4 1011.6 - 0.0 - - - - - - -
30/02:30am 28.1 ENE 5 5 1011.9 - 0.0 - - - - - - -
30/02:00am 28.4 ENE 5 6 1012.0 - 0.0 - - - - - - -
30/01:30am 28.8 NE 6 8 1012.3 - 0.0 - - - - - - -
30/01:00am 28.9 NE 6 8 1012.7 - 0.0 - - - - - - -
30/12:30am 28.9 NE 7 9 1013.1 - 0.0 - - - - - - -
30/12:00am 29.0 NE 7 9 1013.4 - 0.0 - - - - - - -
 
Date/Time
CST
Temp

°C
Wind Pressure Rain
since 9am
mm
Weather Cloud Vis
km
Sea
Height
m
Swell
Dir
 
Speed
knots
Gust
knots
hPa Trend Height
m
Period
s
Dir
29/11:30pm 29.1 NE 8 11 1013.7 - 0.0 - - - - - - -
29/11:00pm 29.1 NE 7 9 1013.5 - 0.0 - - - - - - -
29/10:30pm 29.2 NE 9 11 1013.6 - 0.0 - - - - - - -
29/10:00pm 29.3 NE 9 12 1013.6 - 0.0 - - - - - - -
29/09:30pm 29.3 ENE 8 11 1013.4 - 0.0 - - - - - - -
29/09:00pm 29.4 ENE 9 11 1013.2 - 0.0 - - - - - - -
29/08:30pm 29.6 ENE 9 12 1013.1 - 0.0 - - - - - - -
29/08:00pm 29.7 NE 9 11 1012.9 - 0.0 - - - - - - -
29/07:30pm 29.8 NE 10 13 1012.7 - 0.0 - - - - - - -
29/07:00pm 30.0 NE 10 13 1012.5 - 0.0 - - - - - - -

Other Formats:

Comma delimited format used in spreadsheet applications
http://www.bom.gov.au/fwo/IDD60701/IDD60701.94248.axf

JavaScript Object Notation format (JSON) in row-major order
http://www.bom.gov.au/fwo/IDD60701/IDD60701.94248.json